createdAt,value
2018-07-24T00:01:24.251Z,25.60
2018-07-24T00:04:05.930Z,25.60
2018-07-24T00:06:46.976Z,25.70
2018-07-24T00:09:27.868Z,25.70
2018-07-24T00:12:08.871Z,25.80
2018-07-24T00:14:50.108Z,25.90
2018-07-24T00:17:31.462Z,25.80
2018-07-24T00:20:12.777Z,25.80
2018-07-24T00:22:53.351Z,25.80
2018-07-24T00:25:34.347Z,25.80
2018-07-24T00:28:15.289Z,25.80
2018-07-24T00:30:56.280Z,25.80
2018-07-24T00:33:37.931Z,25.80
2018-07-24T00:36:18.915Z,25.80
2018-07-24T00:39:00.279Z,25.70
2018-07-24T00:41:41.792Z,25.60
2018-07-24T00:44:22.879Z,25.60
2018-07-24T00:47:03.877Z,25.50
2018-07-24T00:49:45.000Z,25.50
2018-07-24T00:52:26.384Z,25.50
2018-07-24T00:55:07.330Z,25.50
2018-07-24T00:57:48.227Z,25.40
2018-07-24T01:00:29.419Z,25.40
2018-07-24T01:03:10.783Z,25.50
2018-07-24T01:05:51.992Z,25.50
2018-07-24T01:08:33.469Z,25.40
2018-07-24T01:11:14.168Z,25.40
2018-07-24T01:13:55.016Z,25.40
2018-07-24T01:16:36.040Z,25.40
2018-07-24T01:19:16.922Z,25.40
2018-07-24T01:21:58.295Z,25.40
2018-07-24T01:24:39.233Z,25.40
2018-07-24T01:27:20.242Z,25.40
2018-07-24T01:30:01.358Z,25.40
2018-07-24T01:32:42.479Z,25.30
2018-07-24T01:35:23.233Z,25.20
2018-07-24T01:38:04.107Z,25.20
2018-07-24T01:40:45.272Z,25.20
2018-07-24T01:43:26.188Z,25.10
2018-07-24T01:46:07.004Z,25.10
2018-07-24T01:48:47.804Z,25.00
2018-07-24T01:51:28.753Z,25.00
2018-07-24T01:54:09.784Z,25.10
2018-07-24T01:56:51.120Z,25.00
2018-07-24T01:59:32.511Z,25.20
2018-07-24T02:02:13.912Z,25.10
2018-07-24T02:04:54.945Z,25.10
2018-07-24T02:07:35.600Z,25.10
2018-07-24T02:10:17.030Z,25.10
2018-07-24T02:12:58.233Z,25.10
2018-07-24T02:15:39.685Z,25.10
2018-07-24T02:18:20.703Z,25.10
2018-07-24T02:21:01.491Z,25.10
2018-07-24T02:23:42.385Z,25.10
2018-07-24T02:26:23.099Z,25.10
2018-07-24T02:29:03.948Z,25.10
2018-07-24T02:31:44.936Z,25.10
2018-07-24T02:34:25.735Z,25.10
2018-07-24T02:37:06.608Z,25.10
2018-07-24T02:39:47.561Z,25.10
2018-07-24T02:42:28.505Z,25.10
2018-07-24T02:45:09.583Z,25.10
2018-07-24T02:47:50.499Z,25.00
2018-07-24T02:50:31.520Z,25.00
2018-07-24T02:53:12.115Z,25.00
2018-07-24T02:55:53.204Z,25.00
2018-07-24T02:58:34.133Z,25.00
2018-07-24T03:01:15.084Z,24.90
2018-07-24T03:03:56.232Z,24.90
2018-07-24T03:06:37.568Z,24.90
2018-07-24T03:09:18.373Z,24.90
2018-07-24T03:11:59.250Z,24.90
2018-07-24T03:14:40.127Z,24.90
2018-07-24T03:17:20.791Z,24.90
2018-07-24T03:20:01.812Z,24.90
2018-07-24T03:22:42.367Z,24.90
2018-07-24T03:25:23.153Z,24.90
2018-07-24T03:28:03.950Z,24.90
2018-07-24T03:33:25.815Z,25.00
2018-07-24T03:36:06.913Z,25.10
2018-07-24T03:38:47.487Z,25.10
2018-07-24T03:41:28.290Z,25.10
2018-07-24T03:44:09.420Z,25.20
2018-07-24T03:46:50.240Z,25.20
2018-07-24T03:49:30.953Z,25.30
2018-07-24T03:52:11.899Z,25.30
2018-07-24T03:54:52.800Z,25.30
2018-07-24T03:57:33.790Z,25.30
2018-07-24T04:00:14.835Z,25.30
2018-07-24T04:02:56.048Z,25.20
2018-07-24T04:05:36.779Z,25.20
2018-07-24T04:08:18.216Z,25.10
2018-07-24T04:10:59.101Z,25.00
2018-07-24T04:13:40.131Z,25.00
2018-07-24T04:16:21.005Z,24.90
2018-07-24T04:19:01.755Z,24.90
2018-07-24T04:24:24.117Z,24.70
2018-07-24T04:27:04.868Z,24.70
2018-07-24T04:29:45.745Z,24.70
2018-07-24T04:32:26.652Z,24.70
2018-07-24T04:35:07.817Z,24.60
2018-07-24T04:37:48.612Z,24.60
2018-07-24T04:40:29.292Z,24.60
2018-07-24T04:43:10.119Z,24.60
2018-07-24T04:45:51.076Z,24.70
2018-07-24T04:48:31.914Z,24.60
2018-07-24T04:51:12.701Z,24.60
2018-07-24T04:53:53.574Z,24.60
2018-07-24T04:56:34.481Z,24.70
2018-07-24T04:59:15.540Z,24.60
2018-07-24T05:01:56.193Z,24.70
2018-07-24T05:04:37.172Z,24.70
2018-07-24T05:07:17.838Z,24.70
2018-07-24T05:09:59.164Z,24.80
2018-07-24T05:12:40.036Z,24.80
2018-07-24T05:15:21.052Z,24.80
2018-07-24T05:18:01.892Z,24.80
2018-07-24T05:20:42.914Z,24.80
2018-07-24T05:23:23.636Z,24.90
2018-07-24T05:26:04.476Z,25.00
2018-07-24T05:28:45.553Z,25.10
2018-07-24T05:34:08.576Z,25.50
2018-07-24T05:36:49.746Z,25.60
2018-07-24T05:39:30.515Z,25.80
2018-07-24T05:42:11.779Z,26.00
2018-07-24T05:44:52.702Z,26.20
2018-07-24T05:47:33.824Z,26.40
2018-07-24T05:50:14.547Z,26.50
2018-07-24T05:52:55.447Z,26.70
2018-07-24T05:55:36.979Z,27.00
2018-07-24T05:58:18.079Z,27.20
2018-07-24T06:00:59.091Z,27.50
2018-07-24T06:03:40.225Z,27.90
2018-07-24T06:06:21.131Z,28.20
2018-07-24T06:09:01.729Z,28.30
2018-07-24T06:14:24.232Z,28.60
2018-07-24T06:17:04.850Z,28.80
2018-07-24T06:19:45.797Z,29.00
2018-07-24T06:22:26.570Z,29.20
2018-07-24T06:25:07.353Z,29.50
2018-07-24T06:27:48.823Z,29.90
2018-07-24T06:30:29.780Z,30.30
2018-07-24T06:33:10.780Z,30.60
2018-07-24T06:35:51.403Z,30.90
2018-07-24T06:38:32.303Z,31.00
2018-07-24T06:41:13.156Z,31.20
2018-07-24T06:43:53.747Z,31.40
2018-07-24T06:46:34.416Z,31.50
2018-07-24T06:49:15.094Z,31.60
2018-07-24T06:51:56.014Z,31.70
2018-07-24T06:54:37.015Z,31.80
2018-07-24T06:57:18.205Z,31.80
2018-07-24T06:59:59.437Z,31.80
2018-07-24T07:02:40.429Z,31.80
2018-07-24T07:05:21.199Z,31.90
2018-07-24T07:08:02.236Z,31.90
2018-07-24T07:10:43.379Z,31.90
2018-07-24T07:13:24.515Z,31.90
2018-07-24T07:16:05.221Z,31.90
2018-07-24T07:18:45.999Z,31.80
2018-07-24T07:21:26.876Z,31.50
2018-07-24T07:24:07.622Z,31.40
2018-07-24T07:26:48.519Z,31.40
2018-07-24T07:29:29.943Z,31.30
2018-07-24T07:32:10.773Z,31.20
2018-07-24T07:34:51.760Z,31.20
2018-07-24T07:37:32.570Z,31.30
2018-07-24T07:40:13.763Z,31.30
2018-07-24T07:42:54.635Z,31.30
2018-07-24T07:45:35.714Z,31.40
2018-07-24T07:48:16.220Z,31.40
2018-07-24T07:50:57.115Z,31.50
2018-07-24T07:56:19.400Z,31.70
2018-07-24T07:59:00.448Z,31.90
2018-07-24T08:01:42.071Z,32.10
2018-07-24T08:04:22.980Z,32.30
2018-07-24T08:07:04.435Z,32.60
2018-07-24T08:09:45.515Z,32.90
2018-07-24T08:12:26.881Z,33.10
2018-07-24T08:15:07.788Z,33.20
2018-07-24T08:17:48.671Z,33.20
2018-07-24T08:20:29.546Z,33.20
2018-07-24T08:23:10.197Z,33.10
2018-07-24T08:25:50.847Z,33.00
2018-07-24T08:28:31.931Z,33.00
2018-07-24T08:31:12.660Z,32.90
2018-07-24T08:33:53.320Z,33.00
2018-07-24T08:36:34.310Z,32.90
2018-07-24T08:39:15.465Z,32.70
2018-07-24T08:41:56.952Z,32.70
2018-07-24T08:44:37.827Z,32.60
2018-07-24T08:50:00.747Z,32.60
2018-07-24T08:52:41.712Z,32.70
2018-07-24T08:55:22.719Z,32.80
2018-07-24T08:58:03.197Z,32.90
2018-07-24T09:03:25.082Z,32.90
2018-07-24T09:06:05.736Z,32.80
2018-07-24T09:08:46.701Z,32.80
2018-07-24T09:11:27.723Z,32.70
2018-07-24T09:14:08.529Z,32.70
2018-07-24T09:16:49.345Z,32.60
2018-07-24T09:19:30.577Z,32.70
2018-07-24T09:22:12.266Z,32.80
2018-07-24T09:24:52.864Z,32.90
2018-07-24T09:27:33.665Z,33.10
2018-07-24T09:30:14.525Z,33.40
2018-07-24T09:32:55.531Z,33.60
2018-07-24T09:40:59.919Z,34.00
2018-07-24T09:43:40.759Z,34.20
2018-07-24T09:46:21.873Z,34.50
2018-07-24T09:49:03.305Z,34.70
2018-07-24T09:51:44.181Z,34.80
2018-07-24T09:54:24.928Z,34.70
2018-07-24T09:57:05.810Z,34.70
2018-07-24T09:59:46.781Z,34.60
2018-07-24T10:02:27.608Z,34.50
2018-07-24T10:05:08.827Z,34.30
2018-07-24T10:07:50.277Z,34.30
2018-07-24T10:10:31.048Z,34.20
2018-07-24T10:13:12.043Z,34.00
2018-07-24T10:15:52.916Z,33.80
2018-07-24T10:18:33.620Z,33.70
2018-07-24T10:21:14.458Z,33.60
2018-07-24T10:23:55.015Z,33.60
2018-07-24T10:26:35.755Z,33.60
2018-07-24T10:29:16.509Z,33.70
2018-07-24T10:31:57.163Z,33.70
2018-07-24T10:34:37.955Z,33.70
2018-07-24T10:37:18.760Z,33.70
2018-07-24T10:39:59.852Z,33.60
2018-07-24T10:42:40.826Z,33.50
2018-07-24T10:45:21.853Z,33.30
2018-07-24T10:50:44.500Z,33.10
2018-07-24T10:53:25.287Z,33.10
2018-07-24T10:56:06.167Z,33.10
2018-07-24T10:58:47.316Z,33.10
2018-07-24T11:01:28.209Z,33.30
2018-07-24T11:04:09.059Z,33.30
2018-07-24T11:06:49.984Z,33.30
2018-07-24T11:09:31.079Z,33.50
2018-07-24T11:12:11.667Z,33.60
2018-07-24T11:14:52.749Z,33.70
2018-07-24T11:17:33.560Z,33.60
2018-07-24T11:20:14.611Z,33.60
2018-07-24T11:22:55.486Z,33.50
2018-07-24T11:25:36.130Z,33.50
2018-07-24T11:28:16.778Z,33.50
2018-07-24T11:30:57.652Z,33.50
2018-07-24T11:33:38.287Z,33.40
2018-07-24T11:36:18.903Z,33.30
2018-07-24T11:41:41.324Z,33.20
2018-07-24T11:44:22.320Z,33.30
2018-07-24T11:47:03.574Z,33.30
2018-07-24T11:49:44.195Z,33.30
2018-07-24T11:52:25.069Z,33.30
2018-07-24T11:55:06.040Z,33.20
2018-07-24T11:57:47.258Z,33.10
2018-07-24T12:00:28.174Z,33.10
2018-07-24T12:03:09.243Z,33.00
2018-07-24T12:05:50.183Z,32.90
2018-07-24T12:08:31.335Z,32.90
2018-07-24T12:11:12.391Z,32.80
2018-07-24T12:13:53.559Z,32.80
2018-07-24T12:16:34.654Z,32.80
2018-07-24T12:19:15.459Z,32.80
2018-07-24T12:21:56.372Z,32.80
2018-07-24T12:24:37.574Z,32.80
2018-07-24T12:27:19.858Z,32.80
2018-07-24T12:30:00.756Z,32.80
2018-07-24T12:32:41.458Z,32.80
2018-07-24T12:35:23.043Z,32.80
2018-07-24T12:38:04.284Z,32.90
2018-07-24T12:40:45.069Z,32.90
2018-07-24T12:43:25.928Z,32.90
2018-07-24T12:46:06.902Z,32.90
2018-07-24T12:48:47.996Z,32.90
2018-07-24T12:51:29.107Z,33.10
2018-07-24T12:54:09.926Z,33.20
2018-07-24T12:56:50.870Z,33.20
2018-07-24T12:59:32.139Z,33.10
2018-07-24T13:02:12.724Z,32.90
2018-07-24T13:04:53.664Z,33.00
2018-07-24T13:07:34.397Z,32.90
2018-07-24T13:10:15.695Z,32.90
2018-07-24T13:12:56.615Z,32.90
2018-07-24T13:18:19.583Z,33.00
2018-07-24T13:21:00.619Z,33.10
2018-07-24T13:23:41.673Z,33.10
2018-07-24T13:26:22.512Z,33.00
2018-07-24T13:29:03.544Z,32.90
2018-07-24T13:31:44.694Z,32.90
2018-07-24T13:34:25.663Z,32.90
2018-07-24T13:37:06.452Z,32.90
2018-07-24T13:39:47.343Z,32.90
2018-07-24T13:42:28.643Z,33.00
2018-07-24T13:45:10.117Z,33.10
2018-07-24T13:47:51.088Z,33.00
2018-07-24T13:50:31.947Z,32.90
2018-07-24T13:55:54.253Z,32.80
2018-07-24T13:58:35.730Z,32.60
2018-07-24T14:01:16.611Z,32.50
2018-07-24T14:06:39.128Z,32.40
2018-07-24T14:09:20.236Z,32.50
2018-07-24T14:12:01.716Z,32.60
2018-07-24T14:14:42.574Z,32.60
2018-07-24T14:17:23.627Z,32.60
2018-07-24T14:20:04.374Z,32.50
2018-07-24T14:22:45.203Z,32.60
2018-07-24T14:25:26.094Z,32.50
2018-07-24T14:28:07.203Z,32.30
2018-07-24T14:30:47.887Z,32.10
2018-07-24T14:33:28.909Z,31.90
2018-07-24T14:36:09.540Z,31.60
2018-07-24T14:38:50.876Z,31.40
2018-07-24T14:41:31.528Z,31.20
2018-07-24T14:44:12.422Z,31.20
2018-07-24T14:46:53.372Z,31.20
2018-07-24T14:49:34.106Z,31.20
2018-07-24T14:52:15.184Z,31.20
2018-07-24T14:54:56.512Z,31.20
2018-07-24T14:57:37.238Z,31.20
2018-07-24T15:00:17.902Z,31.10
2018-07-24T15:05:40.432Z,31.00
2018-07-24T15:08:21.211Z,31.10
2018-07-24T15:11:02.379Z,31.10
2018-07-24T15:16:25.531Z,31.00
2018-07-24T15:19:07.095Z,30.90
2018-07-24T15:21:47.944Z,30.70
2018-07-24T15:24:29.385Z,30.60
2018-07-24T15:27:10.461Z,30.60
2018-07-24T15:29:51.217Z,30.60
2018-07-24T15:32:32.084Z,30.70
2018-07-24T15:35:13.626Z,30.80
2018-07-24T15:37:55.576Z,30.80
2018-07-24T15:40:36.711Z,30.90
2018-07-24T15:43:17.449Z,31.00
2018-07-24T15:45:58.643Z,31.10
2018-07-24T15:48:39.553Z,31.00
2018-07-24T15:51:20.296Z,31.00
2018-07-24T15:54:01.126Z,30.90
2018-07-24T15:56:42.089Z,30.90
2018-07-24T15:59:22.939Z,30.80
2018-07-24T16:02:03.836Z,30.70
2018-07-24T16:04:44.721Z,30.80
2018-07-24T16:07:25.727Z,30.90
2018-07-24T16:10:06.746Z,31.00
2018-07-24T16:12:47.435Z,30.70
2018-07-24T16:15:28.443Z,30.40
2018-07-24T16:18:09.112Z,30.30
2018-07-24T16:20:50.434Z,30.10
2018-07-24T16:23:31.554Z,30.30
2018-07-24T16:26:12.089Z,30.40
2018-07-24T16:28:52.857Z,30.50
2018-07-24T16:31:33.530Z,30.40
2018-07-24T16:34:14.614Z,30.50
2018-07-24T16:36:55.465Z,30.50
2018-07-24T16:39:36.362Z,30.40
2018-07-24T16:42:17.108Z,30.30
2018-07-24T16:44:58.113Z,30.20
2018-07-24T16:47:39.313Z,30.10
2018-07-24T16:50:20.917Z,30.00
2018-07-24T16:53:01.753Z,30.00
2018-07-24T16:55:42.596Z,29.90
2018-07-24T16:58:23.549Z,29.90
2018-07-24T17:01:04.400Z,29.80
2018-07-24T17:03:45.254Z,29.60
2018-07-24T17:06:26.160Z,29.30
2018-07-24T17:09:06.987Z,29.00
2018-07-24T17:11:47.663Z,28.70
2018-07-24T17:14:28.719Z,28.50
2018-07-24T17:17:09.628Z,28.40
2018-07-24T17:19:50.830Z,28.30
2018-07-24T17:22:31.661Z,28.30
2018-07-24T17:25:16.071Z,28.30
2018-07-24T17:27:56.629Z,28.30
2018-07-24T17:30:37.295Z,28.30
2018-07-24T17:33:18.219Z,28.30
2018-07-24T17:35:59.258Z,28.30
2018-07-24T17:38:40.500Z,28.30
2018-07-24T17:41:21.234Z,28.30
2018-07-24T17:44:02.087Z,28.20
2018-07-24T17:46:42.707Z,28.30
2018-07-24T17:49:24.040Z,28.30
2018-07-24T17:52:05.568Z,28.30
2018-07-24T17:54:46.496Z,28.20
2018-07-24T17:57:27.456Z,28.10
2018-07-24T18:00:08.228Z,28.10
2018-07-24T18:02:49.139Z,28.00
2018-07-24T18:05:30.164Z,28.00
2018-07-24T18:08:10.747Z,27.90
2018-07-24T18:10:51.664Z,27.90
2018-07-24T18:13:32.321Z,27.80
2018-07-24T18:16:13.625Z,27.80
2018-07-24T18:18:54.495Z,27.70
2018-07-24T18:21:35.411Z,27.70
2018-07-24T18:24:16.395Z,27.70
2018-07-24T18:26:57.524Z,27.60
2018-07-24T18:29:38.599Z,27.50
2018-07-24T18:32:19.261Z,27.40
2018-07-24T18:35:00.007Z,27.40
2018-07-24T18:37:40.755Z,27.30
2018-07-24T18:40:21.634Z,27.30
2018-07-24T18:43:02.528Z,27.20
2018-07-24T18:45:43.677Z,27.10
2018-07-24T18:48:24.529Z,27.00
2018-07-24T18:51:06.026Z,27.00
2018-07-24T18:53:46.985Z,26.90
2018-07-24T18:56:27.832Z,26.90
2018-07-24T18:59:08.884Z,26.90
2018-07-24T19:04:31.356Z,26.90
2018-07-24T19:07:12.216Z,26.90
2018-07-24T19:09:52.973Z,26.90
2018-07-24T19:12:34.105Z,26.80
2018-07-24T19:15:14.797Z,26.80
2018-07-24T19:20:36.542Z,26.70
2018-07-24T19:23:17.619Z,26.70
2018-07-24T19:25:58.651Z,26.60
2018-07-24T19:28:39.708Z,26.60
2018-07-24T19:31:20.761Z,26.60
2018-07-24T19:34:01.622Z,26.70
2018-07-24T19:36:42.322Z,26.70
2018-07-24T19:39:23.299Z,26.70
2018-07-24T19:42:04.077Z,26.60
2018-07-24T19:44:45.028Z,26.70
2018-07-24T19:47:25.844Z,26.70
2018-07-24T19:50:06.751Z,26.70
2018-07-24T19:52:47.883Z,26.70
2018-07-24T19:55:28.800Z,26.60
2018-07-24T19:58:09.944Z,26.60
2018-07-24T20:00:50.999Z,26.60
2018-07-24T20:03:31.705Z,26.50
2018-07-24T20:06:12.883Z,26.50
2018-07-24T20:08:54.040Z,26.50
2018-07-24T20:11:34.748Z,26.50
2018-07-24T20:14:15.719Z,26.40
2018-07-24T20:16:56.612Z,26.40
2018-07-24T20:19:37.720Z,26.40
2018-07-24T20:22:19.153Z,26.40
2018-07-24T20:25:00.015Z,26.40
2018-07-24T20:27:41.497Z,26.30
2018-07-24T20:30:22.434Z,26.40
2018-07-24T20:33:03.833Z,26.30
2018-07-24T20:35:45.044Z,26.30
2018-07-24T20:38:26.122Z,26.20
2018-07-24T20:43:48.393Z,26.20
2018-07-24T20:46:29.694Z,26.20
2018-07-24T20:49:10.773Z,26.10
2018-07-24T20:51:51.619Z,26.10
2018-07-24T20:54:33.229Z,26.10
2018-07-24T20:57:14.804Z,26.10
2018-07-24T20:59:55.539Z,26.00
2018-07-24T21:02:36.792Z,26.00
2018-07-24T21:05:18.193Z,26.00
2018-07-24T21:07:59.504Z,26.00
2018-07-24T21:10:40.378Z,26.10
2018-07-24T21:13:21.553Z,26.10
2018-07-24T21:16:02.792Z,26.20
2018-07-24T21:18:43.634Z,26.10
2018-07-24T21:21:24.782Z,26.10
2018-07-24T21:24:06.040Z,26.00
2018-07-24T21:26:47.256Z,26.00
2018-07-24T21:29:28.335Z,26.00
2018-07-24T21:32:09.512Z,26.00
2018-07-24T21:34:50.779Z,26.00
2018-07-24T21:37:32.242Z,25.90
2018-07-24T21:40:13.682Z,26.00
2018-07-24T21:42:54.445Z,25.90
2018-07-24T21:45:35.042Z,25.90
2018-07-24T21:48:16.185Z,25.90
2018-07-24T21:50:57.035Z,25.80
2018-07-24T21:53:37.954Z,25.80
2018-07-24T21:56:18.517Z,25.70
2018-07-24T21:58:59.478Z,25.70
2018-07-24T22:01:40.447Z,25.70
2018-07-24T22:04:21.419Z,25.70
2018-07-24T22:07:02.780Z,25.60
2018-07-24T22:09:44.004Z,25.60
2018-07-24T22:12:25.904Z,25.60
2018-07-24T22:15:10.936Z,25.50
2018-07-24T22:17:51.886Z,25.50
2018-07-24T22:20:33.023Z,25.50
2018-07-24T22:23:14.022Z,25.40
2018-07-24T22:25:55.071Z,25.40
2018-07-24T22:28:36.138Z,25.40
2018-07-24T22:31:17.395Z,25.40
2018-07-24T22:33:58.724Z,25.40
2018-07-24T22:36:40.216Z,25.40
2018-07-24T22:39:20.903Z,25.40
2018-07-24T22:42:02.243Z,25.40
2018-07-24T22:44:43.825Z,25.30
2018-07-24T22:47:24.553Z,25.30
2018-07-24T22:50:05.693Z,25.30
2018-07-24T22:52:46.581Z,25.20
2018-07-24T22:55:27.651Z,25.20
2018-07-24T22:58:09.137Z,25.20
2018-07-24T23:00:50.309Z,25.10
2018-07-24T23:03:31.621Z,25.10
2018-07-24T23:06:12.783Z,25.10
2018-07-24T23:08:53.955Z,25.10
2018-07-24T23:11:35.267Z,25.10
2018-07-24T23:14:16.147Z,25.10
2018-07-24T23:16:57.610Z,25.10
2018-07-24T23:19:38.630Z,25.10
2018-07-24T23:22:19.275Z,25.10
2018-07-24T23:27:42.122Z,25.10
2018-07-24T23:30:23.208Z,25.00
2018-07-24T23:33:03.787Z,25.10
2018-07-24T23:35:44.967Z,25.10
2018-07-24T23:38:26.051Z,25.00
2018-07-24T23:41:07.273Z,25.00
2018-07-24T23:43:48.574Z,24.90
2018-07-24T23:46:29.235Z,24.90
2018-07-24T23:49:10.227Z,24.90
2018-07-24T23:51:50.897Z,24.80
2018-07-24T23:54:31.814Z,24.80
2018-07-24T23:57:12.383Z,24.80
2018-07-24T23:59:53.189Z,24.80
